sensor_id;sensor_type;location;lat;lon;timestamp;pressure;altitude;pressure_sealevel;temperature;humidity
62103;BME280;48077;48.104;11.702;2024-03-22T00:01:44;96214.88;;;4.35;100.00
62103;BME280;48077;48.104;11.702;2024-03-22T00:04:09;96227.88;;;4.45;100.00
62103;BME280;48077;48.104;11.702;2024-03-22T00:06:36;96218.97;;;4.46;100.00
62103;BME280;48077;48.104;11.702;2024-03-22T00:09:05;96213.53;;;4.39;100.00
62103;BME280;48077;48.104;11.702;2024-03-22T00:11:32;96196.00;;;4.23;100.00
62103;BME280;48077;48.104;11.702;2024-03-22T00:13:58;96210.44;;;4.36;100.00
62103;BME280;48077;48.104;11.702;2024-03-22T00:16:25;96217.53;;;4.35;100.00
62103;BME280;48077;48.104;11.702;2024-03-22T00:18:52;96218.50;;;4.42;100.00
62103;BME280;48077;48.104;11.702;2024-03-22T00:21:19;96214.25;;;4.33;100.00
62103;BME280;48077;48.104;11.702;2024-03-22T00:23:45;96220.16;;;4.35;100.00
62103;BME280;48077;48.104;11.702;2024-03-22T00:26:12;96223.81;;;4.34;100.00
62103;BME280;48077;48.104;11.702;2024-03-22T00:28:38;96208.50;;;4.30;100.00
62103;BME280;48077;48.104;11.702;2024-03-22T00:31:05;96217.91;;;4.32;100.00
62103;BME280;48077;48.104;11.702;2024-03-22T00:33:30;96218.53;;;4.34;100.00
62103;BME280;48077;48.104;11.702;2024-03-22T00:35:59;96205.56;;;4.24;100.00
62103;BME280;48077;48.104;11.702;2024-03-22T00:38:25;96217.78;;;4.25;100.00
62103;BME280;48077;48.104;11.702;2024-03-22T00:40:52;96221.25;;;4.26;100.00
62103;BME280;48077;48.104;11.702;2024-03-22T00:43:19;96208.63;;;4.13;100.00
62103;BME280;48077;48.104;11.702;2024-03-22T00:45:46;96213.97;;;4.28;100.00
62103;BME280;48077;48.104;11.702;2024-03-22T00:48:12;96183.56;;;4.09;100.00
62103;BME280;48077;48.104;11.702;2024-03-22T00:50:39;96203.28;;;4.21;100.00
62103;BME280;48077;48.104;11.702;2024-03-22T00:53:06;96191.97;;;4.13;100.00
62103;BME280;48077;48.104;11.702;2024-03-22T00:55:33;96195.94;;;4.09;100.00
62103;BME280;48077;48.104;11.702;2024-03-22T00:57:59;96181.94;;;4.00;100.00
62103;BME280;48077;48.104;11.702;2024-03-22T01:00:26;96165.59;;;3.81;100.00
62103;BME280;48077;48.104;11.702;2024-03-22T01:07:44;96182.31;;;3.65;100.00
62103;BME280;48077;48.104;11.702;2024-03-22T01:10:11;96177.81;;;3.74;100.00
62103;BME280;48077;48.104;11.702;2024-03-22T01:12:38;96177.97;;;3.73;100.00
62103;BME280;48077;48.104;11.702;2024-03-22T01:15:06;96165.03;;;3.63;100.00
62103;BME280;48077;48.104;11.702;2024-03-22T01:17:32;96175.22;;;3.66;100.00
62103;BME280;48077;48.104;11.702;2024-03-22T01:20:00;96169.41;;;3.71;100.00
62103;BME280;48077;48.104;11.702;2024-03-22T01:22:26;96134.59;;;3.52;100.00
62103;BME280;48077;48.104;11.702;2024-03-22T01:24:54;96165.00;;;3.71;100.00
62103;BME280;48077;48.104;11.702;2024-03-22T01:27:20;96160.69;;;3.70;100.00
62103;BME280;48077;48.104;11.702;2024-03-22T01:29:47;96127.97;;;3.56;100.00
62103;BME280;48077;48.104;11.702;2024-03-22T01:32:12;96162.69;;;3.68;100.00
62103;BME280;48077;48.104;11.702;2024-03-22T01:34:39;96143.47;;;3.51;100.00
62103;BME280;48077;48.104;11.702;2024-03-22T01:37:05;96156.75;;;3.66;100.00
62103;BME280;48077;48.104;11.702;2024-03-22T01:39:32;96149.38;;;3.61;100.00
62103;BME280;48077;48.104;11.702;2024-03-22T01:42:00;96145.22;;;3.67;100.00
62103;BME280;48077;48.104;11.702;2024-03-22T01:44:27;96147.84;;;3.67;100.00
62103;BME280;48077;48.104;11.702;2024-03-22T01:46:53;96135.44;;;3.44;100.00
62103;BME280;48077;48.104;11.702;2024-03-22T01:49:21;96139.53;;;3.47;100.00
62103;BME280;48077;48.104;11.702;2024-03-22T01:51:47;96148.06;;;3.57;100.00
62103;BME280;48077;48.104;11.702;2024-03-22T01:54:15;96155.16;;;3.57;100.00
62103;BME280;48077;48.104;11.702;2024-03-22T01:56:41;96150.53;;;3.59;100.00
62103;BME280;48077;48.104;11.702;2024-03-22T01:59:10;96144.81;;;3.47;100.00
62103;BME280;48077;48.104;11.702;2024-03-22T02:01:36;96139.53;;;3.47;100.00
62103;BME280;48077;48.104;11.702;2024-03-22T02:04:03;96142.59;;;3.28;100.00
62103;BME280;48077;48.104;11.702;2024-03-22T02:06:29;96142.25;;;3.31;100.00
62103;BME280;48077;48.104;11.702;2024-03-22T02:08:56;96140.25;;;3.33;100.00
62103;BME280;48077;48.104;11.702;2024-03-22T02:11:22;96136.81;;;3.32;100.00
62103;BME280;48077;48.104;11.702;2024-03-22T02:13:49;96106.75;;;3.10;100.00
62103;BME280;48077;48.104;11.702;2024-03-22T02:16:16;96129.31;;;3.13;100.00
62103;BME280;48077;48.104;11.702;2024-03-22T02:18:43;96119.88;;;3.18;100.00
62103;BME280;48077;48.104;11.702;2024-03-22T02:21:10;96113.19;;;3.08;100.00
62103;BME280;48077;48.104;11.702;2024-03-22T02:23:39;96116.47;;;3.10;100.00
62103;BME280;48077;48.104;11.702;2024-03-22T02:26:06;96118.59;;;3.14;100.00
62103;BME280;48077;48.104;11.702;2024-03-22T02:28:34;96110.25;;;3.02;100.00
62103;BME280;48077;48.104;11.702;2024-03-22T02:31:01;96111.56;;;2.98;100.00
62103;BME280;48077;48.104;11.702;2024-03-22T02:33:28;96113.22;;;2.91;100.00
62103;BME280;48077;48.104;11.702;2024-03-22T02:35:55;96106.81;;;2.94;100.00
62103;BME280;48077;48.104;11.702;2024-03-22T02:38:23;96105.03;;;2.86;100.00
62103;BME280;48077;48.104;11.702;2024-03-22T02:40:52;96104.34;;;2.92;100.00
62103;BME280;48077;48.104;11.702;2024-03-22T02:43:19;96116.50;;;3.01;100.00
62103;BME280;48077;48.104;11.702;2024-03-22T02:45:46;96102.81;;;2.98;100.00
62103;BME280;48077;48.104;11.702;2024-03-22T02:48:13;96099.25;;;2.91;100.00
62103;BME280;48077;48.104;11.702;2024-03-22T02:50:41;96094.50;;;2.86;100.00
62103;BME280;48077;48.104;11.702;2024-03-22T02:53:07;96096.97;;;2.88;100.00
62103;BME280;48077;48.104;11.702;2024-03-22T02:55:38;96101.72;;;2.92;100.00
62103;BME280;48077;48.104;11.702;2024-03-22T02:58:06;96090.72;;;2.80;100.00
62103;BME280;48077;48.104;11.702;2024-03-22T03:00:35;96091.06;;;2.77;100.00
62103;BME280;48077;48.104;11.702;2024-03-22T03:03:01;96093.84;;;2.84;100.00
62103;BME280;48077;48.104;11.702;2024-03-22T03:05:28;96089.25;;;2.78;100.00
62103;BME280;48077;48.104;11.702;2024-03-22T03:07:54;96090.88;;;2.79;100.00
62103;BME280;48077;48.104;11.702;2024-03-22T03:10:21;96082.81;;;2.80;100.00
62103;BME280;48077;48.104;11.702;2024-03-22T03:12:47;96091.22;;;2.76;100.00
62103;BME280;48077;48.104;11.702;2024-03-22T03:15:15;96072.78;;;2.76;100.00
62103;BME280;48077;48.104;11.702;2024-03-22T03:17:41;96071.47;;;2.72;100.00
62103;BME280;48077;48.104;11.702;2024-03-22T03:20:09;96072.50;;;2.62;100.00
62103;BME280;48077;48.104;11.702;2024-03-22T03:22:38;96057.03;;;2.51;100.00
62103;BME280;48077;48.104;11.702;2024-03-22T03:25:06;96072.31;;;2.64;100.00
62103;BME280;48077;48.104;11.702;2024-03-22T03:27:32;96057.53;;;2.55;100.00
62103;BME280;48077;48.104;11.702;2024-03-22T03:29:59;96046.03;;;2.39;100.00
62103;BME280;48077;48.104;11.702;2024-03-22T03:32:27;96065.94;;;2.50;100.00
62103;BME280;48077;48.104;11.702;2024-03-22T03:34:54;96064.13;;;2.51;100.00
62103;BME280;48077;48.104;11.702;2024-03-22T03:37:20;96064.63;;;2.46;100.00
62103;BME280;48077;48.104;11.702;2024-03-22T03:39:47;96063.16;;;2.35;100.00
62103;BME280;48077;48.104;11.702;2024-03-22T03:42:12;96064.66;;;2.38;100.00
62103;BME280;48077;48.104;11.702;2024-03-22T03:44:39;96054.28;;;2.28;100.00
62103;BME280;48077;48.104;11.702;2024-03-22T03:47:07;96045.88;;;2.33;100.00
62103;BME280;48077;48.104;11.702;2024-03-22T03:49:35;96055.91;;;2.46;100.00
62103;BME280;48077;48.104;11.702;2024-03-22T03:52:01;96047.72;;;2.32;100.00
62103;BME280;48077;48.104;11.702;2024-03-22T03:54:28;96047.72;;;2.32;100.00
62103;BME280;48077;48.104;11.702;2024-03-22T03:56:54;96037.19;;;2.24;100.00
62103;BME280;48077;48.104;11.702;2024-03-22T03:59:20;96047.22;;;2.20;100.00
62103;BME280;48077;48.104;11.702;2024-03-22T04:01:46;96020.75;;;2.06;100.00
62103;BME280;48077;48.104;11.702;2024-03-22T04:04:13;96030.13;;;2.08;100.00
62103;BME280;48077;48.104;11.702;2024-03-22T04:06:40;96041.13;;;2.28;100.00
62103;BME280;48077;48.104;11.702;2024-03-22T04:09:09;96031.78;;;2.26;100.00
62103;BME280;48077;48.104;11.702;2024-03-22T04:11:35;96028.34;;;2.17;100.00
62103;BME280;48077;48.104;11.702;2024-03-22T04:14:02;96035.88;;;2.20;100.00
62103;BME280;48077;48.104;11.702;2024-03-22T04:16:28;96013.03;;;2.04;100.00
62103;BME280;48077;48.104;11.702;2024-03-22T04:18:55;96029.97;;;2.18;100.00
62103;BME280;48077;48.104;11.702;2024-03-22T04:21:21;96028.81;;;2.20;100.00
62103;BME280;48077;48.104;11.702;2024-03-22T04:23:49;96027.31;;;2.26;100.00
62103;BME280;48077;48.104;11.702;2024-03-22T04:26:15;96030.75;;;2.27;100.00
62103;BME280;48077;48.104;11.702;2024-03-22T04:28:42;96014.97;;;2.27;100.00
62103;BME280;48077;48.104;11.702;2024-03-22T04:31:09;96006.63;;;2.15;100.00
62103;BME280;48077;48.104;11.702;2024-03-22T04:33:37;96013.50;;;2.24;100.00
62103;BME280;48077;48.104;11.702;2024-03-22T04:36:03;96015.16;;;2.25;100.00
62103;BME280;48077;48.104;11.702;2024-03-22T04:38:30;96002.31;;;2.22;100.00
62103;BME280;48077;48.104;11.702;2024-03-22T04:40:59;96019.72;;;2.31;100.00
62103;BME280;48077;48.104;11.702;2024-03-22T04:43:27;96014.00;;;2.28;100.00
62103;BME280;48077;48.104;11.702;2024-03-22T04:45:54;96027.31;;;2.34;100.00
62103;BME280;48077;48.104;11.702;2024-03-22T04:48:22;96016.94;;;2.33;100.00
62103;BME280;48077;48.104;11.702;2024-03-22T04:50:49;96023.38;;;2.30;100.00
62103;BME280;48077;48.104;11.702;2024-03-22T04:53:16;96023.84;;;2.34;100.00
62103;BME280;48077;48.104;11.702;2024-03-22T04:55:42;96018.09;;;2.30;100.00
62103;BME280;48077;48.104;11.702;2024-03-22T04:58:13;96019.25;;;2.28;100.00
62103;BME280;48077;48.104;11.702;2024-03-22T05:00:39;96014.50;;;2.23;100.00
62103;BME280;48077;48.104;11.702;2024-03-22T05:03:06;96026.00;;;2.30;100.00
62103;BME280;48077;48.104;11.702;2024-03-22T05:05:32;96022.41;;;2.23;100.00
62103;BME280;48077;48.104;11.702;2024-03-22T05:07:59;96013.50;;;2.24;100.00
62103;BME280;48077;48.104;11.702;2024-03-22T05:10:25;96013.66;;;2.22;100.00
62103;BME280;48077;48.104;11.702;2024-03-22T05:12:51;96016.63;;;2.28;100.00
62103;BME280;48077;48.104;11.702;2024-03-22T05:15:19;96005.44;;;2.34;100.00
62103;BME280;48077;48.104;11.702;2024-03-22T05:17:46;96010.19;;;2.38;100.00
62103;BME280;48077;48.104;11.702;2024-03-22T05:20:11;95997.69;;;2.32;100.00
62103;BME280;48077;48.104;11.702;2024-03-22T05:22:38;96007.53;;;2.47;100.00
62103;BME280;48077;48.104;11.702;2024-03-22T05:25:05;96004.38;;;2.51;100.00
62103;BME280;48077;48.104;11.702;2024-03-22T05:27:34;96001.56;;;2.61;100.00
62103;BME280;48077;48.104;11.702;2024-03-22T05:30:00;96009.22;;;2.71;100.00
62103;BME280;48077;48.104;11.702;2024-03-22T05:32:28;95985.06;;;2.67;100.00
62103;BME280;48077;48.104;11.702;2024-03-22T05:34:54;95998.13;;;2.92;100.00
62103;BME280;48077;48.104;11.702;2024-03-22T05:37:21;96002.22;;;2.94;100.00
62103;BME280;48077;48.104;11.702;2024-03-22T05:39:47;96001.53;;;3.00;100.00
62103;BME280;48077;48.104;11.702;2024-03-22T05:42:14;96004.78;;;3.11;100.00
62103;BME280;48077;48.104;11.702;2024-03-22T05:44:40;96009.53;;;3.15;100.00
62103;BME280;48077;48.104;11.702;2024-03-22T05:47:06;96003.56;;;3.21;100.00
62103;BME280;48077;48.104;11.702;2024-03-22T05:49:34;96007.78;;;3.31;100.00
62103;BME280;48077;48.104;11.702;2024-03-22T05:52:01;96007.72;;;3.39;100.00
62103;BME280;48077;48.104;11.702;2024-03-22T05:54:26;95991.22;;;3.45;100.00
62103;BME280;48077;48.104;11.702;2024-03-22T05:56:53;95998.25;;;3.53;100.00
62103;BME280;48077;48.104;11.702;2024-03-22T05:59:19;95999.66;;;3.63;100.00
62103;BME280;48077;48.104;11.702;2024-03-22T06:01:46;95996.78;;;3.73;100.00
62103;BME280;48077;48.104;11.702;2024-03-22T06:04:12;95985.69;;;3.78;100.00
62103;BME280;48077;48.104;11.702;2024-03-22T06:06:40;95992.72;;;3.85;100.00
62103;BME280;48077;48.104;11.702;2024-03-22T06:09:05;95972.13;;;3.81;100.00
62103;BME280;48077;48.104;11.702;2024-03-22T06:11:35;95985.34;;;3.96;100.00
62103;BME280;48077;48.104;11.702;2024-03-22T06:14:01;95982.63;;;4.04;100.00
62103;BME280;48077;48.104;11.702;2024-03-22T06:16:27;95980.56;;;4.14;100.00
62103;BME280;48077;48.104;11.702;2024-03-22T06:18:53;95965.63;;;4.07;100.00
62103;BME280;48077;48.104;11.702;2024-03-22T06:21:20;95983.09;;;4.22;100.00
62103;BME280;48077;48.104;11.702;2024-03-22T06:23:50;95970.28;;;4.19;100.00
62103;BME280;48077;48.104;11.702;2024-03-22T06:26:17;95979.75;;;4.29;100.00
62103;BME280;48077;48.104;11.702;2024-03-22T06:28:43;95972.28;;;4.32;100.00
62103;BME280;48077;48.104;11.702;2024-03-22T06:31:10;95963.66;;;4.23;100.00
62103;BME280;48077;48.104;11.702;2024-03-22T06:33:36;95973.47;;;4.30;100.00
62103;BME280;48077;48.104;11.702;2024-03-22T06:36:04;95963.66;;;4.23;100.00
62103;BME280;48077;48.104;11.702;2024-03-22T06:38:29;95974.47;;;4.29;100.00
62103;BME280;48077;48.104;11.702;2024-03-22T06:40:58;95973.81;;;4.26;100.00
62103;BME280;48077;48.104;11.702;2024-03-22T06:43:24;95968.00;;;4.31;100.00
62103;BME280;48077;48.104;11.702;2024-03-22T06:45:51;95977.31;;;4.42;100.00
62103;BME280;48077;48.104;11.702;2024-03-22T06:48:17;95971.47;;;4.46;100.00
62103;BME280;48077;48.104;11.702;2024-03-22T06:50:44;95974.09;;;4.61;100.00
62103;BME280;48077;48.104;11.702;2024-03-22T06:53:11;95979.28;;;4.70;100.00
62103;BME280;48077;48.104;11.702;2024-03-22T06:55:38;95977.19;;;4.80;100.00
62103;BME280;48077;48.104;11.702;2024-03-22T06:58:05;95976.59;;;4.99;100.00
62103;BME280;48077;48.104;11.702;2024-03-22T07:00:32;95973.28;;;5.12;100.00
62103;BME280;48077;48.104;11.702;2024-03-22T07:03:00;95974.06;;;5.27;100.00
62103;BME280;48077;48.104;11.702;2024-03-22T07:05:28;95961.91;;;5.33;100.00
62103;BME280;48077;48.104;11.702;2024-03-22T07:07:54;95945.59;;;5.30;100.00
62103;BME280;48077;48.104;11.702;2024-03-22T07:10:23;95962.09;;;5.53;100.00
62103;BME280;48077;48.104;11.702;2024-03-22T07:12:53;95975.66;;;5.65;100.00
62103;BME280;48077;48.104;11.702;2024-03-22T07:15:22;95968.44;;;5.80;100.00
62103;BME280;48077;48.104;11.702;2024-03-22T07:17:48;95967.31;;;5.90;100.00
62103;BME280;48077;48.104;11.702;2024-03-22T07:20:15;95975.38;;;6.03;100.00
62103;BME280;48077;48.104;11.702;2024-03-22T07:22:41;95971.44;;;6.20;100.00
62103;BME280;48077;48.104;11.702;2024-03-22T07:25:08;95964.84;;;6.38;100.00
62103;BME280;48077;48.104;11.702;2024-03-22T07:27:35;95969.59;;;6.56;100.00
62103;BME280;48077;48.104;11.702;2024-03-22T07:30:02;95963.38;;;6.70;100.00
62103;BME280;48077;48.104;11.702;2024-03-22T07:32:30;95961.22;;;6.94;100.00
62103;BME280;48077;48.104;11.702;2024-03-22T07:34:57;95970.69;;;7.23;100.00
62103;BME280;48077;48.104;11.702;2024-03-22T07:37:23;95977.06;;;7.35;100.00
62103;BME280;48077;48.104;11.702;2024-03-22T07:39:49;95974.66;;;7.47;100.00
62103;BME280;48077;48.104;11.702;2024-03-22T07:42:16;95974.28;;;7.63;100.00
62103;BME280;48077;48.104;11.702;2024-03-22T07:44:43;95975.50;;;7.67;100.00
62103;BME280;48077;48.104;11.702;2024-03-22T07:47:08;95971.84;;;7.75;100.00
62103;BME280;48077;48.104;11.702;2024-03-22T07:49:37;95970.81;;;7.83;100.00
62103;BME280;48077;48.104;11.702;2024-03-22T07:52:02;95966.53;;;7.88;100.00
62103;BME280;48077;48.104;11.702;2024-03-22T07:54:30;95968.38;;;7.95;100.00
62103;BME280;48077;48.104;11.702;2024-03-22T07:56:56;95973.28;;;8.04;100.00
62103;BME280;48077;48.104;11.702;2024-03-22T07:59:23;95972.03;;;8.14;100.00
62103;BME280;48077;48.104;11.702;2024-03-22T08:01:49;95968.97;;;8.23;100.00
62103;BME280;48077;48.104;11.702;2024-03-22T08:04:15;95970.59;;;8.24;100.00
62103;BME280;48077;48.104;11.702;2024-03-22T08:06:43;95967.72;;;8.32;100.00
62103;BME280;48077;48.104;11.702;2024-03-22T08:09:14;95962.59;;;8.31;100.00
62103;BME280;48077;48.104;11.702;2024-03-22T08:11:40;95957.72;;;8.28;100.00
62103;BME280;48077;48.104;11.702;2024-03-22T08:14:07;95953.81;;;8.30;100.00
62103;BME280;48077;48.104;11.702;2024-03-22T08:16:33;95950.16;;;8.31;100.00
62103;BME280;48077;48.104;11.702;2024-03-22T08:19:00;95945.44;;;8.34;100.00
62103;BME280;48077;48.104;11.702;2024-03-22T08:21:25;95944.00;;;8.38;100.00
62103;BME280;48077;48.104;11.702;2024-03-22T08:23:54;95943.59;;;8.47;100.00
62103;BME280;48077;48.104;11.702;2024-03-22T08:26:20;95939.09;;;8.55;100.00
62103;BME280;48077;48.104;11.702;2024-03-22T08:28:47;95941.09;;;8.66;100.00
62103;BME280;48077;48.104;11.702;2024-03-22T08:31:13;95938.19;;;8.74;100.00
62103;BME280;48077;48.104;11.702;2024-03-22T08:33:40;95936.13;;;8.83;100.00
62103;BME280;48077;48.104;11.702;2024-03-22T08:36:06;95935.69;;;8.93;100.00
62103;BME280;48077;48.104;11.702;2024-03-22T08:38:33;95933.63;;;8.95;100.00
62103;BME280;48077;48.104;11.702;2024-03-22T08:41:00;95937.19;;;9.20;100.00
62103;BME280;48077;48.104;11.702;2024-03-22T08:43:26;95929.38;;;9.25;100.00
62103;BME280;48077;48.104;11.702;2024-03-22T08:45:54;95932.56;;;9.41;100.00
62103;BME280;48077;48.104;11.702;2024-03-22T08:48:21;95931.44;;;9.55;100.00
62103;BME280;48077;48.104;11.702;2024-03-22T08:50:47;95922.75;;;9.66;100.00
62103;BME280;48077;48.104;11.702;2024-03-22T08:53:14;95927.19;;;9.79;100.00
62103;BME280;48077;48.104;11.702;2024-03-22T08:55:45;95921.88;;;9.79;100.00
62103;BME280;48077;48.104;11.702;2024-03-22T08:58:13;95919.19;;;9.79;100.00
62103;BME280;48077;48.104;11.702;2024-03-22T09:00:41;95914.88;;;10.03;100.00
62103;BME280;48077;48.104;11.702;2024-03-22T09:03:07;95924.19;;;10.19;100.00
62103;BME280;48077;48.104;11.702;2024-03-22T09:05:33;95911.78;;;10.31;100.00
62103;BME280;48077;48.104;11.702;2024-03-22T09:08:00;95913.81;;;10.55;100.00
62103;BME280;48077;48.104;11.702;2024-03-22T09:10:26;95898.41;;;10.75;100.00
62103;BME280;48077;48.104;11.702;2024-03-22T09:12:53;95900.22;;;10.93;100.00
62103;BME280;48077;48.104;11.702;2024-03-22T09:15:20;95901.94;;;11.18;100.00
62103;BME280;48077;48.104;11.702;2024-03-22T09:17:47;95899.94;;;11.43;100.00
62103;BME280;48077;48.104;11.702;2024-03-22T09:20:14;95896.13;;;11.51;100.00
62103;BME280;48077;48.104;11.702;2024-03-22T09:22:40;95890.72;;;11.69;100.00
62103;BME280;48077;48.104;11.702;2024-03-22T09:25:07;95889.75;;;11.94;100.00
62103;BME280;48077;48.104;11.702;2024-03-22T09:27:34;95890.06;;;11.98;100.00
62103;BME280;48077;48.104;11.702;2024-03-22T09:30:00;95892.88;;;12.14;100.00
62103;BME280;48077;48.104;11.702;2024-03-22T09:32:30;95887.53;;;12.14;100.00
62103;BME280;48077;48.104;11.702;2024-03-22T09:34:57;95876.13;;;12.31;100.00
62103;BME280;48077;48.104;11.702;2024-03-22T09:37:23;95874.59;;;12.35;100.00
62103;BME280;48077;48.104;11.702;2024-03-22T09:39:49;95879.47;;;12.50;100.00
62103;BME280;48077;48.104;11.702;2024-03-22T09:42:17;95867.88;;;12.44;100.00
62103;BME280;48077;48.104;11.702;2024-03-22T09:44:46;95870.84;;;12.60;100.00
62103;BME280;48077;48.104;11.702;2024-03-22T09:47:15;95865.25;;;12.73;100.00
62103;BME280;48077;48.104;11.702;2024-03-22T09:49:42;95869.03;;;12.89;100.00
62103;BME280;48077;48.104;11.702;2024-03-22T09:52:12;95865.19;;;13.25;100.00
62103;BME280;48077;48.104;11.702;2024-03-22T09:54:41;95857.84;;;13.21;100.00
62103;BME280;48077;48.104;11.702;2024-03-22T09:57:10;95848.53;;;13.23;100.00
62103;BME280;48077;48.104;11.702;2024-03-22T09:59:37;95854.13;;;13.22;99.73
62103;BME280;48077;48.104;11.702;2024-03-22T10:02:04;95854.47;;;12.96;99.19
62103;BME280;48077;48.104;11.702;2024-03-22T10:04:30;95851.88;;;12.73;96.04
62103;BME280;48077;48.104;11.702;2024-03-22T10:06:59;95849.13;;;12.85;100.00
62103;BME280;48077;48.104;11.702;2024-03-22T10:09:28;95849.34;;;12.95;100.00
62103;BME280;48077;48.104;11.702;2024-03-22T10:11:55;95838.16;;;12.98;100.00
62103;BME280;48077;48.104;11.702;2024-03-22T10:14:21;95832.69;;;13.22;98.53
62103;BME280;48077;48.104;11.702;2024-03-22T10:16:51;95837.38;;;13.43;97.99
62103;BME280;48077;48.104;11.702;2024-03-22T10:19:19;95828.19;;;13.56;94.02
62103;BME280;48077;48.104;11.702;2024-03-22T10:21:45;95827.09;;;13.86;96.35
62103;BME280;48077;48.104;11.702;2024-03-22T10:24:13;95826.72;;;13.99;83.78
62103;BME280;48077;48.104;11.702;2024-03-22T10:26:40;95819.34;;;13.89;82.46
62103;BME280;48077;48.104;11.702;2024-03-22T10:29:06;95816.78;;;13.61;75.57
62103;BME280;48077;48.104;11.702;2024-03-22T10:31:35;95810.16;;;14.02;79.01
62103;BME280;48077;48.104;11.702;2024-03-22T10:34:02;95813.38;;;14.21;83.13
62103;BME280;48077;48.104;11.702;2024-03-22T10:36:31;95811.91;;;14.13;79.51
62103;BME280;48077;48.104;11.702;2024-03-22T10:38:58;95805.22;;;13.94;82.17
62103;BME280;48077;48.104;11.702;2024-03-22T10:41:27;95807.22;;;14.04;78.00
62103;BME280;48077;48.104;11.702;2024-03-22T10:43:52;95810.84;;;14.31;82.39
62103;BME280;48077;48.104;11.702;2024-03-22T10:46:20;95812.00;;;14.41;79.77
62103;BME280;48077;48.104;11.702;2024-03-22T10:48:46;95802.78;;;14.53;75.28
62103;BME280;48077;48.104;11.702;2024-03-22T10:51:14;95801.25;;;14.18;77.38
62103;BME280;48077;48.104;11.702;2024-03-22T10:53:41;95805.28;;;14.60;77.65
62103;BME280;48077;48.104;11.702;2024-03-22T10:56:09;95796.03;;;14.51;72.36
62103;BME280;48077;48.104;11.702;2024-03-22T10:58:39;95798.16;;;14.49;69.89
62103;BME280;48077;48.104;11.702;2024-03-22T11:01:21;95789.63;;;14.74;72.90
62103;BME280;48077;48.104;11.702;2024-03-22T11:03:47;95790.78;;;15.10;71.18
62103;BME280;48077;48.104;11.702;2024-03-22T11:06:17;95782.22;;;15.08;68.08
62103;BME280;48077;48.104;11.702;2024-03-22T11:08:44;95783.00;;;14.82;75.96
62103;BME280;48077;48.104;11.702;2024-03-22T11:11:11;95782.47;;;14.57;73.12
62103;BME280;48077;48.104;11.702;2024-03-22T11:13:40;95773.00;;;15.31;77.37
62103;BME280;48077;48.104;11.702;2024-03-22T11:16:09;95773.34;;;15.40;70.01
62103;BME280;48077;48.104;11.702;2024-03-22T11:18:35;95766.75;;;15.58;66.10
62103;BME280;48077;48.104;11.702;2024-03-22T11:21:02;95772.03;;;15.75;69.21
62103;BME280;48077;48.104;11.702;2024-03-22T11:23:29;95766.94;;;15.46;64.49
62103;BME280;48077;48.104;11.702;2024-03-22T11:25:56;95753.59;;;15.94;65.17
62103;BME280;48077;48.104;11.702;2024-03-22T11:28:22;95750.00;;;16.26;62.03
62103;BME280;48077;48.104;11.702;2024-03-22T11:30:50;95751.41;;;15.86;60.31
62103;BME280;48077;48.104;11.702;2024-03-22T11:33:16;95744.94;;;16.39;59.31
62103;BME280;48077;48.104;11.702;2024-03-22T11:35:44;95737.69;;;16.40;59.32
62103;BME280;48077;48.104;11.702;2024-03-22T11:38:10;95738.28;;;15.62;60.11
62103;BME280;48077;48.104;11.702;2024-03-22T11:40:37;95733.19;;;16.03;59.57
62103;BME280;48077;48.104;11.702;2024-03-22T11:43:03;95725.06;;;16.56;58.22
62103;BME280;48077;48.104;11.702;2024-03-22T11:45:31;95728.75;;;16.34;57.26
62103;BME280;48077;48.104;11.702;2024-03-22T11:48:03;95719.31;;;16.22;56.18
62103;BME280;48077;48.104;11.702;2024-03-22T11:50:30;95707.22;;;16.34;58.18
62103;BME280;48077;48.104;11.702;2024-03-22T11:52:56;95709.59;;;17.09;57.25
62103;BME280;48077;48.104;11.702;2024-03-22T11:55:27;95708.44;;;16.79;57.86
62103;BME280;48077;48.104;11.702;2024-03-22T11:57:53;95700.97;;;16.13;56.88
62103;BME280;48077;48.104;11.702;2024-03-22T12:00:20;95696.63;;;16.12;57.53
62103;BME280;48077;48.104;11.702;2024-03-22T12:02:48;95690.97;;;16.92;56.98
62103;BME280;48077;48.104;11.702;2024-03-22T12:05:16;95685.88;;;17.32;56.44
62103;BME280;48077;48.104;11.702;2024-03-22T12:07:42;95675.09;;;16.86;52.85
62103;BME280;48077;48.104;11.702;2024-03-22T12:10:10;95670.75;;;16.79;54.41
62103;BME280;48077;48.104;11.702;2024-03-22T12:12:36;95665.38;;;17.41;57.06
62103;BME280;48077;48.104;11.702;2024-03-22T12:15:03;95666.75;;;17.13;53.63
62103;BME280;48077;48.104;11.702;2024-03-22T12:17:30;95657.44;;;18.01;53.82
62103;BME280;48077;48.104;11.702;2024-03-22T12:19:56;95660.09;;;18.06;53.18
62103;BME280;48077;48.104;11.702;2024-03-22T12:22:24;95638.63;;;17.60;54.13
62103;BME280;48077;48.104;11.702;2024-03-22T12:24:51;95651.63;;;17.37;53.94
62103;BME280;48077;48.104;11.702;2024-03-22T12:27:17;95629.47;;;17.61;55.12
62103;BME280;48077;48.104;11.702;2024-03-22T12:29:43;95645.66;;;17.61;53.70
62103;BME280;48077;48.104;11.702;2024-03-22T12:32:09;95635.31;;;17.99;54.25
62103;BME280;48077;48.104;11.702;2024-03-22T12:34:36;95641.16;;;18.16;55.56
62103;BME280;48077;48.104;11.702;2024-03-22T12:37:02;95636.75;;;17.66;54.79
62103;BME280;48077;48.104;11.702;2024-03-22T12:39:31;95631.59;;;17.79;54.26
62103;BME280;48077;48.104;11.702;2024-03-22T12:41:58;95622.44;;;17.75;53.24
62103;BME280;48077;48.104;11.702;2024-03-22T12:44:25;95616.25;;;17.65;52.79
62103;BME280;48077;48.104;11.702;2024-03-22T12:46:51;95611.69;;;17.50;55.66
62103;BME280;48077;48.104;11.702;2024-03-22T12:49:20;95605.22;;;17.51;54.51
62103;BME280;48077;48.104;11.702;2024-03-22T12:51:45;95597.94;;;17.56;52.25
62103;BME280;48077;48.104;11.702;2024-03-22T12:54:13;95592.34;;;17.27;53.65